Time;durP1;ratioP1;P1;durP2;ratioP2;P2;SDS_P1;SDS_P2;PMS_P1;PMS_P2;Temp;Humidity;BMP_temperature;BMP_pressure;BME280_temperature;BME280_humidity;BME280_pressure;Samples;Min_cycle;Max_cycle;Signal;HPM_P1;HPM_P2
2023/08/10 00:01:05;;;;;;;6.22;0.32;;;;;;;14.44;74.29;100914.81;5053671;28;20116;-78
2023/08/10 00:03:32;;;;;;;4.07;0.40;;;;;;;14.45;74.22;100916.50;5055429;28;20049;-77
2023/08/10 00:05:59;;;;;;;6.97;0.40;;;;;;;14.43;74.22;100907.84;5032722;28;20415;-78
2023/08/10 00:08:25;;;;;;;6.28;0.50;;;;;;;14.46;74.20;100914.75;5059311;28;20131;-77
2023/08/10 00:10:55;;;;;;;1.75;0.38;;;;;;;14.46;74.52;100920.00;5056210;28;20044;-77
2023/08/10 00:13:22;;;;;;;6.65;0.68;;;;;;;14.45;74.46;100915.66;5049062;28;20077;-78
2023/08/10 00:15:49;;;;;;;3.22;0.30;;;;;;;14.45;74.59;100913.03;5059819;28;20132;-78
2023/08/10 00:18:16;;;;;;;5.30;0.40;;;;;;;14.44;74.43;100913.94;5041742;28;20045;-78
2023/08/10 00:20:43;;;;;;;3.03;0.40;;;;;;;14.45;74.54;100916.50;5035844;28;20414;-78
2023/08/10 00:23:12;;;;;;;3.03;0.28;;;;;;;14.45;74.48;100920.91;5058119;28;20052;-77
2023/08/10 00:25:39;;;;;;;9.00;0.40;;;;;;;14.44;74.51;100920.06;5046814;28;20040;-77
2023/08/10 00:28:07;;;;;;;5.70;0.93;;;;;;;14.44;74.52;100909.56;5049825;28;20053;-80
2023/08/10 00:30:34;;;;;;;3.30;0.30;;;;;;;14.44;74.56;100925.31;5062076;28;20438;-79
2023/08/10 00:33:01;;;;;;;7.28;1.02;;;;;;;14.44;74.54;100924.47;5054733;28;20136;-79
2023/08/10 00:35:28;;;;;;;6.63;0.30;;;;;;;14.45;74.49;100927.03;5057535;28;20099;-78
2023/08/10 00:37:56;;;;;;;6.80;0.40;;;;;;;14.37;74.65;100901.00;5063687;28;20058;-77
2023/08/10 00:40:23;;;;;;;6.45;0.30;;;;;;;14.45;74.51;100919.13;5055799;28;20410;-78
2023/08/10 00:42:50;;;;;;;2.90;0.30;;;;;;;14.45;74.64;100919.13;5061135;28;20044;-78
2023/08/10 00:45:18;;;;;;;1.75;0.20;;;;;;;14.46;74.62;100913.00;5057221;28;20048;-77
2023/08/10 00:47:45;;;;;;;4.30;0.20;;;;;;;14.47;74.41;100913.84;5055931;28;20128;-78
2023/08/10 00:50:12;;;;;;;5.75;0.30;;;;;;;14.47;74.41;100922.59;5053436;28;20552;-77
2023/08/10 00:52:39;;;;;;;3.45;0.45;;;;;;;14.46;74.65;100915.63;5062043;28;20414;-77
2023/08/10 00:55:07;;;;;;;4.18;0.25;;;;;;;14.47;74.76;100925.22;5057117;28;20051;-78
2023/08/10 00:57:34;;;;;;;3.78;0.30;;;;;;;14.42;74.62;100906.09;5058158;28;20051;-77
2023/08/10 01:00:02;;;;;;;4.32;0.30;;;;;;;14.48;74.50;100915.56;5058405;28;20041;-77
2023/08/10 01:02:31;;;;;;;2.67;0.20;;;;;;;14.48;74.47;100918.19;5054762;28;20041;-78
2023/08/10 01:04:58;;;;;;;5.05;0.20;;;;;;;14.46;74.42;100910.38;5053760;28;20055;-77
2023/08/10 01:07:32;;;;;;;2.30;0.30;;;;;;;14.45;74.52;100906.00;5058126;28;20036;-77
2023/08/10 01:10:07;;;;;;;2.80;0.35;;;;;;;14.40;74.46;100915.81;5062390;28;20058;-77
2023/08/10 01:12:39;;;;;;;3.92;0.30;;;;;;;14.28;74.52;100890.78;5057722;28;20441;-77
2023/08/10 01:15:13;;;;;;;1.25;0.30;;;;;;;14.44;74.31;100920.06;5059220;28;20048;-77
2023/08/10 01:17:50;;;;;;;4.13;0.40;;;;;;;14.38;74.44;100909.75;5059957;28;20044;-78
2023/08/10 01:20:19;;;;;;;1.30;1.08;;;;;;;14.42;74.45;100921.88;5054501;28;20049;-77
2023/08/10 01:22:54;;;;;;;1.48;0.77;;;;;;;14.41;74.30;100920.16;5051238;28;20045;-78
2023/08/10 01:25:24;;;;;;;1.45;0.17;;;;;;;14.42;74.41;100916.63;5058257;28;20049;-77
2023/08/10 01:27:51;;;;;;;2.78;0.28;;;;;;;14.41;74.01;100928.03;5055960;28;20384;-77
2023/08/10 01:30:19;;;;;;;2.70;0.30;;;;;;;14.39;74.41;100927.22;5057465;28;20049;-78
2023/08/10 01:32:46;;;;;;;8.10;1.40;;;;;;;14.38;74.37;100922.88;5057220;28;20510;-77
2023/08/10 01:35:14;;;;;;;7.07;0.32;;;;;;;14.37;74.42;100918.53;5055667;28;20471;-78
2023/08/10 01:37:42;;;;;;;3.97;0.60;;;;;;;14.37;74.52;100924.66;5062045;28;20044;-78
2023/08/10 01:40:12;;;;;;;2.92;0.30;;;;;;;14.32;74.49;100915.22;5052439;28;20045;-74
2023/08/10 01:42:41;;;;;;;4.22;0.60;;;;;;;14.39;74.66;100921.97;5052207;28;20052;-74
2023/08/10 01:45:09;;;;;;;4.82;0.30;;;;;;;14.39;74.51;100922.81;5056079;28;20530;-75
2023/08/10 01:47:40;;;;;;;2.72;0.20;;;;;;;14.40;74.57;100921.09;5053477;28;20048;-75
2023/08/10 01:50:09;;;;;;;4.70;0.20;;;;;;;14.36;74.65;100916.81;5056384;28;20048;-77
2023/08/10 01:52:42;;;;;;;2.97;0.50;;;;;;;14.40;74.73;100923.72;5054000;28;20502;-77
2023/08/10 01:55:11;;;;;;;2.97;0.20;;;;;;;14.40;74.62;100926.34;5051853;28;20495;-77
2023/08/10 01:57:40;;;;;;;2.95;0.70;;;;;;;14.39;74.45;100924.59;5048059;28;20570;-78
2023/08/10 02:00:09;;;;;;;3.47;0.30;;;;;;;14.30;74.59;100901.25;5067049;28;20044;-77
2023/08/10 02:02:36;;;;;;;5.53;0.30;;;;;;;14.22;74.36;100904.13;5058541;28;20132;-77
2023/08/10 02:05:03;;;;;;;4.38;0.30;;;;;;;14.27;74.49;100902.22;5057397;28;20125;-77
2023/08/10 02:07:30;;;;;;;1.13;0.22;;;;;;;14.36;74.62;100920.31;5057526;28;20052;-77
2023/08/10 02:09:57;;;;;;;1.73;0.28;;;;;;;14.34;74.47;100918.63;5044599;28;20048;-77
2023/08/10 02:12:24;;;;;;;8.77;1.15;;;;;;;14.37;74.73;100927.28;5060952;28;20045;-77
2023/08/10 02:14:53;;;;;;;4.75;0.32;;;;;;;14.35;74.60;100921.22;5053382;28;20041;-78
2023/08/10 02:17:19;;;;;;;1.63;0.30;;;;;;;14.34;74.61;100923.88;5057275;28;20049;-77
2023/08/10 02:19:46;;;;;;;2.13;0.25;;;;;;;14.34;74.69;100930.03;5051898;28;20055;-77
2023/08/10 02:22:13;;;;;;;2.65;0.20;;;;;;;14.32;74.71;100926.56;5056643;28;20051;-78
2023/08/10 02:24:41;;;;;;;2.15;0.20;;;;;;;14.30;74.64;100924.91;5059567;28;20055;-77
2023/08/10 02:27:08;;;;;;;2.25;0.20;;;;;;;14.30;74.71;100922.28;5052893;28;20041;-78
2023/08/10 02:29:35;;;;;;;1.45;0.30;;;;;;;14.30;74.79;100923.13;5054581;28;20049;-78
2023/08/10 02:32:03;;;;;;;4.05;0.30;;;;;;;14.30;74.81;100920.50;5061847;28;20076;-77
2023/08/10 02:34:30;;;;;;;4.95;0.43;;;;;;;14.30;74.86;100923.13;5053493;28;20045;-77
2023/08/10 02:36:57;;;;;;;4.93;0.70;;;;;;;14.30;74.88;100924.91;5052020;28;20128;-77
2023/08/10 02:39:24;;;;;;;2.30;0.30;;;;;;;14.25;74.79;100918.91;5052989;28;20044;-77
2023/08/10 02:41:51;;;;;;;3.70;0.30;;;;;;;14.21;74.96;100912.91;5054117;28;20037;-77
2023/08/10 02:44:19;;;;;;;7.57;0.32;;;;;;;14.30;74.99;100925.75;5058533;28;20041;-77
2023/08/10 02:46:46;;;;;;;3.45;0.30;;;;;;;14.30;74.76;100922.28;5047075;28;20142;-77
2023/08/10 02:49:14;;;;;;;0.88;0.25;;;;;;;14.31;74.86;100923.97;5057075;28;20047;-78
2023/08/10 02:51:41;;;;;;;3.88;0.20;;;;;;;14.30;74.76;100923.13;5057354;28;20102;-78
2023/08/10 02:54:08;;;;;;;4.70;0.30;;;;;;;14.29;74.86;100923.19;5055016;28;20403;-77
2023/08/10 02:56:35;;;;;;;4.32;0.30;;;;;;;14.29;74.99;100915.31;5056888;28;20522;-78
2023/08/10 02:59:02;;;;;;;5.40;0.73;;;;;;;14.25;74.90;100919.78;5051395;28;20082;-74
2023/08/10 03:01:29;;;;;;;5.40;0.30;;;;;;;14.25;74.85;100922.41;5050695;28;20055;-74
2023/08/10 03:03:56;;;;;;;3.45;0.30;;;;;;;14.27;74.70;100917.13;5050006;28;20055;-75
2023/08/10 03:06:24;;;;;;;4.00;0.30;;;;;;;14.26;74.68;100921.50;5050142;28;20047;-74
2023/08/10 03:08:51;;;;;;;4.15;0.32;;;;;;;14.22;74.70;100913.75;5053909;28;20051;-75
2023/08/10 03:11:18;;;;;;;0.93;0.30;;;;;;;14.24;74.93;100925.94;5049690;28;20128;-75
2023/08/10 03:13:45;;;;;;;3.60;0.30;;;;;;;14.25;74.92;100929.44;5054122;28;20414;-75
2023/08/10 03:16:12;;;;;;;2.78;0.50;;;;;;;14.25;74.69;100918.91;5050751;28;20048;-75
2023/08/10 03:18:39;;;;;;;6.57;0.45;;;;;;;14.25;74.96;100929.44;5053059;28;20049;-76
2023/08/10 03:21:06;;;;;;;5.20;0.30;;;;;;;14.25;74.59;100926.81;5051995;28;20505;-74
2023/08/10 03:23:34;;;;;;;1.45;0.20;;;;;;;14.25;74.97;100918.91;5050170;28;20052;-74
2023/08/10 03:26:01;;;;;;;2.90;0.30;;;;;;;14.23;74.80;100925.97;5052577;28;20049;-75
2023/08/10 03:28:28;;;;;;;1.63;0.20;;;;;;;14.22;74.94;100929.53;5056113;28;20074;-74
2023/08/10 03:30:55;;;;;;;2.33;0.30;;;;;;;14.20;74.90;100928.72;5049360;28;20057;-74
2023/08/10 03:33:22;;;;;;;2.45;0.50;;;;;;;14.20;75.00;100931.34;5049517;28;20044;-74
2023/08/10 03:35:49;;;;;;;3.50;0.30;;;;;;;14.19;74.94;100922.59;5049461;28;20049;-74
2023/08/10 03:38:16;;;;;;;3.63;0.30;;;;;;;14.15;74.85;100924.47;5045969;28;20051;-74
2023/08/10 03:40:44;;;;;;;5.22;1.00;;;;;;;14.17;74.92;100927.03;5054470;28;20052;-75
2023/08/10 03:43:11;;;;;;;3.38;0.30;;;;;;;14.12;75.00;100921.94;5051645;28;20039;-74
2023/08/10 03:45:38;;;;;;;1.38;0.30;;;;;;;14.14;74.91;100928.00;5050812;28;20055;-74
2023/08/10 03:48:05;;;;;;;5.93;0.30;;;;;;;14.13;74.94;100923.66;5055926;28;20058;-75
2023/08/10 03:50:32;;;;;;;1.90;0.30;;;;;;;14.04;74.88;100917.84;5055139;28;20045;-75
2023/08/10 03:52:59;;;;;;;4.22;0.35;;;;;;;14.07;74.75;100923.84;5054172;28;20049;-74
2023/08/10 03:55:26;;;;;;;6.63;1.65;;;;;;;14.09;74.97;100919.41;5052318;28;20045;-76
2023/08/10 03:57:55;;;;;;;2.13;0.30;;;;;;;14.09;75.09;100922.03;5058848;28;20572;-78
2023/08/10 04:00:22;;;;;;;3.03;0.30;;;;;;;14.11;75.15;100922.81;5055542;28;20051;-77
2023/08/10 04:02:49;;;;;;;2.33;0.30;;;;;;;14.13;74.92;100926.28;5057006;28;20111;-77
2023/08/10 04:05:16;;;;;;;1.38;0.38;;;;;;;14.12;74.93;100929.81;5054073;28;20049;-77
2023/08/10 04:07:43;;;;;;;2.53;0.30;;;;;;;14.07;75.20;100921.22;5053724;28;20051;-79
2023/08/10 04:10:11;;;;;;;4.10;0.20;;;;;;;14.12;74.96;100929.81;5055245;28;20052;-76
2023/08/10 04:12:39;;;;;;;8.68;0.40;;;;;;;14.11;74.94;100928.06;5057440;28;20107;-75
2023/08/10 04:15:08;;;;;;;1.55;0.30;;;;;;;14.11;75.01;100927.22;5057471;28;20498;-74
2023/08/10 04:17:36;;;;;;;4.97;0.20;;;;;;;14.04;74.88;100923.94;5054382;28;20363;-75
2023/08/10 04:20:06;;;;;;;5.00;0.75;;;;;;;14.07;74.93;100929.09;5055158;28;20599;-77
2023/08/10 04:22:33;;;;;;;3.55;0.30;;;;;;;14.08;75.14;100933.44;5053381;28;20574;-75
2023/08/10 04:25:01;;;;;;;4.70;0.32;;;;;;;14.08;74.85;100935.19;5052956;28;20056;-74
2023/08/10 04:27:29;;;;;;;2.72;0.35;;;;;;;14.07;75.08;100936.13;5050627;28;20040;-75
2023/08/10 04:29:56;;;;;;;8.73;0.82;;;;;;;14.05;75.10;100933.53;5053630;28;20049;-75
2023/08/10 04:32:24;;;;;;;1.42;0.50;;;;;;;14.03;75.04;100940.63;5054326;28;20076;-74
2023/08/10 04:34:52;;;;;;;1.58;0.63;;;;;;;14.04;75.12;100947.56;5058057;28;20053;-74
2023/08/10 04:37:19;;;;;;;2.92;0.20;;;;;;;14.03;75.14;100948.50;5054661;28;20080;-74
2023/08/10 04:39:46;;;;;;;2.42;0.22;;;;;;;14.04;75.09;100950.19;5057460;28;20051;-74
2023/08/10 04:42:14;;;;;;;1.17;0.20;;;;;;;14.03;75.30;100948.50;5049669;28;20040;-75
2023/08/10 04:44:41;;;;;;;3.60;0.30;;;;;;;14.03;75.24;100947.59;5053109;28;20051;-75
2023/08/10 04:47:08;;;;;;;2.72;0.20;;;;;;;14.03;75.24;100953.75;5052496;28;20049;-77
2023/08/10 04:49:36;;;;;;;4.25;0.30;;;;;;;14.04;75.38;100957.22;5050050;28;20733;-75
2023/08/10 04:52:05;;;;;;;5.05;0.20;;;;;;;14.05;75.45;100948.44;5057621;28;20414;-75
2023/08/10 04:54:32;;;;;;;2.65;0.45;;;;;;;14.04;75.45;100958.09;5055124;28;20128;-76
2023/08/10 04:56:58;;;;;;;1.13;0.20;;;;;;;14.05;75.39;100951.91;5052798;28;20044;-75
2023/08/10 04:59:26;;;;;;;1.70;0.30;;;;;;;14.05;75.37;100956.31;5055795;28;20052;-75
2023/08/10 05:01:54;;;;;;;2.28;0.13;;;;;;;14.03;75.25;100950.22;5055765;28;20045;-74
2023/08/10 05:04:21;;;;;;;6.82;0.65;;;;;;;14.04;75.42;100954.59;5054450;28;20048;-75
2023/08/10 05:06:49;;;;;;;3.78;0.30;;;;;;;14.06;75.61;100958.03;5053427;28;20048;-75
2023/08/10 05:09:16;;;;;;;4.90;0.30;;;;;;;14.03;75.20;100951.13;5055876;28;20075;-82
2023/08/10 05:11:43;;;;;;;2.38;0.30;;;;;;;14.05;75.29;100953.69;5058042;28;20106;-82
2023/08/10 05:14:10;;;;;;;5.10;0.65;;;;;;;13.93;75.35;100933.91;5064142;28;20487;-83
2023/08/10 05:16:37;;;;;;;2.83;0.28;;;;;;;14.04;75.31;100954.59;5064414;28;20491;-83
2023/08/10 05:19:04;;;;;;;3.42;0.28;;;;;;;14.03;75.53;100956.38;5057606;28;20136;-79
2023/08/10 05:21:31;;;;;;;4.20;0.20;;;;;;;14.03;75.40;100956.38;5062919;28;20044;-78
2023/08/10 05:24:00;;;;;;;1.30;0.20;;;;;;;14.03;75.39;100956.38;5058669;28;20410;-79
2023/08/10 05:26:27;;;;;;;1.20;0.20;;;;;;;13.93;75.41;100945.25;5071056;28;20036;-80
2023/08/10 05:28:54;;;;;;;2.97;0.20;;;;;;;14.03;75.44;100959.00;5065157;28;20041;-78
2023/08/10 05:31:21;;;;;;;2.58;0.30;;;;;;;14.00;75.62;100955.59;5059746;28;20047;-79
2023/08/10 05:33:48;;;;;;;3.53;0.20;;;;;;;14.03;75.61;100961.63;5061431;28;20114;-79
2023/08/10 05:36:16;;;;;;;1.98;0.28;;;;;;;14.04;75.60;100968.59;5066630;28;20052;-79
2023/08/10 05:38:43;;;;;;;2.55;0.30;;;;;;;14.05;75.74;100965.03;5058058;28;20453;-79
2023/08/10 05:41:11;;;;;;;3.58;0.20;;;;;;;14.06;75.66;100965.91;5065957;28;20045;-80
2023/08/10 05:43:38;;;;;;;3.83;0.30;;;;;;;14.06;75.68;100965.91;5055703;28;20418;-80
2023/08/10 05:46:05;;;;;;;2.58;0.30;;;;;;;14.05;75.63;100967.66;5061285;28;20059;-79
2023/08/10 05:48:32;;;;;;;2.40;0.20;;;;;;;14.03;75.62;100964.25;5058511;28;20395;-79
2023/08/10 05:50:59;;;;;;;2.35;0.20;;;;;;;14.07;75.69;100976.38;5067219;28;20052;-78
2023/08/10 05:53:26;;;;;;;2.70;0.85;;;;;;;14.07;75.74;100971.13;5054945;28;20132;-79
2023/08/10 05:55:53;;;;;;;3.63;0.22;;;;;;;14.02;75.79;100965.13;5058204;28;20047;-79
2023/08/10 05:58:21;;;;;;;1.58;0.20;;;;;;;14.07;75.75;100978.16;5063235;28;20048;-79
2023/08/10 06:00:48;;;;;;;2.55;0.20;;;;;;;13.88;76.00;100941.06;5058581;28;20446;-80
2023/08/10 06:03:15;;;;;;;3.17;0.20;;;;;;;14.08;75.92;100977.22;5058721;28;20049;-79
2023/08/10 06:05:43;;;;;;;2.22;0.20;;;;;;;14.08;75.91;100991.22;5058021;28;20458;-79
2023/08/10 06:08:10;;;;;;;1.70;0.20;;;;;;;13.94;75.99;100951.38;5059125;28;20099;-79
2023/08/10 06:10:37;;;;;;;1.23;0.30;;;;;;;14.09;75.80;100978.97;5057700;28;20789;-78
2023/08/10 06:13:04;;;;;;;1.45;0.20;;;;;;;14.08;75.88;100974.59;5061600;28;20046;-79
2023/08/10 06:15:33;;;;;;;1.58;0.28;;;;;;;14.09;75.97;100982.44;5060179;28;20044;-79
2023/08/10 06:18:00;;;;;;;1.77;0.20;;;;;;;14.09;76.10;100977.19;5059069;28;20044;-76
2023/08/10 06:20:27;;;;;;;0.70;0.20;;;;;;;14.10;75.91;100980.69;5058341;28;20460;-77
2023/08/10 06:22:55;;;;;;;1.08;0.20;;;;;;;14.09;75.88;100981.59;5057132;28;20041;-77
2023/08/10 06:25:22;;;;;;;1.67;0.20;;;;;;;14.06;76.04;100977.28;5053071;28;20052;-77
2023/08/10 06:27:49;;;;;;;6.45;0.25;;;;;;;14.10;76.15;100980.69;5052200;28;20044;-77
2023/08/10 06:30:16;;;;;;;2.28;0.20;;;;;;;14.08;76.29;100975.47;5052494;28;20056;-75
2023/08/10 06:32:45;;;;;;;0.80;0.10;;;;;;;14.12;76.13;100984.13;5055065;28;20620;-75
2023/08/10 06:35:12;;;;;;;2.40;0.10;;;;;;;14.12;76.15;100982.34;5052637;28;20422;-76
2023/08/10 06:37:40;;;;;;;2.58;0.20;;;;;;;14.11;76.22;100978.00;5055024;28;20048;-75
2023/08/10 06:40:09;;;;;;;0.80;0.10;;;;;;;14.14;76.10;100995.44;5051267;28;20041;-75
2023/08/10 06:42:37;;;;;;;1.70;0.10;;;;;;;14.08;76.26;100980.72;5052067;28;20499;-75
2023/08/10 06:45:05;;;;;;;4.13;0.25;;;;;;;14.01;76.24;100963.44;5053960;28;20052;-75
2023/08/10 06:47:32;;;;;;;4.07;0.73;;;;;;;14.13;76.08;100984.06;5023889;28;20494;-78
2023/08/10 06:50:00;;;;;;;0.85;0.20;;;;;;;14.15;76.47;100982.25;5064972;28;20405;-80
2023/08/10 06:52:28;;;;;;;1.65;0.20;;;;;;;14.15;76.02;100990.16;5057460;28;20060;-80
2023/08/10 06:54:55;;;;;;;1.30;0.20;;;;;;;14.20;76.23;100986.50;5051546;28;20122;-79
2023/08/10 06:57:22;;;;;;;3.15;0.20;;;;;;;14.18;76.17;100982.16;5059019;28;20475;-78
2023/08/10 06:59:49;;;;;;;22.85;1.98;;;;;;;14.18;75.92;100987.44;5060119;28;20051;-79
2023/08/10 07:02:17;;;;;;;2.53;0.20;;;;;;;14.22;76.23;100995.22;5054184;28;20124;-79
2023/08/10 07:04:45;;;;;;;4.35;0.20;;;;;;;14.22;75.94;100982.94;5056312;28;20400;-78
2023/08/10 07:07:14;;;;;;;0.60;0.10;;;;;;;14.22;76.12;100992.59;5062679;28;20045;-79
2023/08/10 07:09:42;;;;;;;2.78;0.20;;;;;;;14.22;76.10;100989.97;5053864;28;20098;-80
2023/08/10 07:12:09;;;;;;;3.33;0.20;;;;;;;14.23;76.18;100995.19;5055866;28;20056;-79
2023/08/10 07:14:36;;;;;;;2.05;0.20;;;;;;;14.25;76.17;100998.59;5051300;28;20056;-80
2023/08/10 07:17:03;;;;;;;1.73;0.20;;;;;;;14.28;76.12;100992.41;5059868;28;20431;-79
2023/08/10 07:19:30;;;;;;;4.05;0.40;;;;;;;14.29;76.17;100996.75;5064877;28;20055;-78
2023/08/10 07:21:57;;;;;;;1.58;0.10;;;;;;;14.32;76.11;100994.03;5054533;28;20055;-78
2023/08/10 07:24:26;;;;;;;3.13;0.30;;;;;;;14.32;76.15;101005.41;5054722;28;20044;-78
2023/08/10 07:26:53;;;;;;;0.55;0.55;;;;;;;14.32;75.99;101008.03;5054433;28;20055;-79
2023/08/10 07:29:20;;;;;;;3.20;0.10;;;;;;;14.34;75.99;101003.59;5057795;28;20048;-81
2023/08/10 07:31:47;;;;;;;0.45;0.10;;;;;;;14.35;76.19;101010.56;5051000;28;20049;-76
2023/08/10 07:34:14;;;;;;;1.23;0.20;;;;;;;14.35;76.05;101010.56;5056316;28;20049;-77
2023/08/10 07:36:41;;;;;;;5.30;0.10;;;;;;;14.37;76.26;101014.03;5052543;28;20415;-77
2023/08/10 07:39:08;;;;;;;3.25;0.10;;;;;;;14.38;76.28;101014.88;5057763;28;20059;-76
2023/08/10 07:41:36;;;;;;;1.15;0.10;;;;;;;14.38;76.31;101020.97;5051296;28;20052;-75
2023/08/10 07:44:03;;;;;;;1.00;0.10;;;;;;;14.40;76.18;101023.59;5059245;28;20068;-76
2023/08/10 07:46:30;;;;;;;0.40;0.10;;;;;;;14.40;76.39;101026.22;5058339;28;20063;-76
2023/08/10 07:48:57;;;;;;;1.50;0.10;;;;;;;14.42;76.06;101031.41;5057930;28;20052;-76
2023/08/10 07:51:24;;;;;;;1.05;0.10;;;;;;;14.40;76.19;101034.09;5058925;28;20052;-76
2023/08/10 07:53:51;;;;;;;2.15;0.10;;;;;;;14.39;76.23;101027.94;5055195;28;20250;-75
2023/08/10 07:56:18;;;;;;;0.70;0.13;;;;;;;14.41;76.33;101030.56;5029038;28;20079;-76
2023/08/10 07:58:46;;;;;;;1.30;0.10;;;;;;;14.43;76.33;101035.75;5056453;28;20040;-76
2023/08/10 08:01:14;;;;;;;2.95;0.10;;;;;;;14.45;75.98;101036.56;5054310;28;20049;-76
2023/08/10 08:03:41;;;;;;;2.17;0.17;;;;;;;14.46;76.09;101039.16;5054765;28;20865;-75
2023/08/10 08:06:09;;;;;;;0.85;0.10;;;;;;;14.48;75.97;101032.06;5054049;28;20060;-75
2023/08/10 08:08:35;;;;;;;3.13;0.20;;;;;;;14.50;76.00;101039.91;5058083;28;20055;-75
2023/08/10 08:11:03;;;;;;;2.45;0.20;;;;;;;14.50;75.94;101035.53;5061464;28;20047;-75
2023/08/10 08:13:30;;;;;;;1.92;0.10;;;;;;;14.53;76.07;101039.84;5056443;28;20048;-76
2023/08/10 08:15:58;;;;;;;2.95;0.20;;;;;;;14.51;75.91;101036.38;5056869;28;20059;-75
2023/08/10 08:18:46;;;;;;;3.60;0.20;;;;;;;14.55;75.77;101038.06;5055100;28;20050;-76
2023/08/10 08:21:16;;;;;;;3.35;0.45;;;;;;;14.56;75.79;101045.88;5055712;28;20583;-76
2023/08/10 08:23:43;;;;;;;1.40;0.15;;;;;;;14.58;75.80;101048.47;5057360;28;20451;-74
2023/08/10 08:26:11;;;;;;;1.77;0.20;;;;;;;14.53;75.92;101040.72;5054773;28;20041;-75
2023/08/10 08:28:38;;;;;;;6.45;0.45;;;;;;;14.57;75.96;101049.34;5059272;28;20055;-75
2023/08/10 08:31:06;;;;;;;1.85;0.20;;;;;;;14.58;76.03;101045.84;5054321;28;20072;-75
2023/08/10 08:33:34;;;;;;;1.85;0.20;;;;;;;14.59;75.86;101056.28;5054470;28;20880;-75
2023/08/10 08:36:01;;;;;;;1.17;0.20;;;;;;;14.58;75.68;101043.22;5052983;28;20136;-75
2023/08/10 08:38:29;;;;;;;3.75;0.20;;;;;;;14.59;75.64;101053.66;5052593;28;20726;-80
2023/08/10 08:40:56;;;;;;;0.43;0.20;;;;;;;14.59;75.72;101055.44;5060339;28;20125;-79
2023/08/10 08:43:23;;;;;;;0.73;0.20;;;;;;;14.60;75.79;101049.28;5054425;28;20044;-79
2023/08/10 08:45:50;;;;;;;1.52;0.20;;;;;;;14.54;75.79;101036.31;5058192;28;20434;-79
2023/08/10 08:48:19;;;;;;;1.95;0.20;;;;;;;14.63;75.79;101051.81;5059122;28;20049;-76
2023/08/10 08:50:47;;;;;;;2.85;0.30;;;;;;;14.64;76.00;101050.06;5055240;28;20561;-76
2023/08/10 08:53:14;;;;;;;2.80;0.20;;;;;;;14.66;75.98;101053.47;5053734;28;20099;-76
2023/08/10 08:55:43;;;;;;;3.25;0.88;;;;;;;14.52;76.11;101022.38;5055727;28;20127;-77
2023/08/10 08:58:10;;;;;;;0.75;0.28;;;;;;;14.66;76.28;101051.72;5050896;28;20048;-76
2023/08/10 09:00:37;;;;;;;2.50;0.20;;;;;;;14.74;76.08;101054.09;5049049;28;20052;-77
2023/08/10 09:03:04;;;;;;;2.60;0.20;;;;;;;14.75;76.39;101050.56;5055393;28;20049;-77
2023/08/10 09:05:34;;;;;;;1.50;0.17;;;;;;;14.77;76.39;101054.00;5058387;28;20183;-78
2023/08/10 09:08:01;;;;;;;0.55;0.10;;;;;;;14.79;75.93;101057.44;5060509;28;20041;-78
2023/08/10 09:10:29;;;;;;;2.50;0.95;;;;;;;14.79;75.90;101054.81;5056885;28;20119;-77
2023/08/10 09:12:56;;;;;;;2.38;0.20;;;;;;;14.81;75.85;101064.38;5058915;28;20784;-78
2023/08/10 09:15:27;;;;;;;0.82;0.20;;;;;;;14.82;75.76;101058.22;5062959;28;20080;-77
2023/08/10 09:17:54;;;;;;;2.72;0.40;;;;;;;14.83;75.62;101061.72;5061143;28;20090;-78
2023/08/10 09:20:23;;;;;;;3.13;0.20;;;;;;;14.83;75.44;101057.31;5065056;28;20043;-77
2023/08/10 09:22:54;;;;;;;1.50;0.20;;;;;;;14.85;75.61;101068.63;5062592;28;20052;-77
2023/08/10 09:25:22;;;;;;;0.80;0.20;;;;;;;14.87;75.79;101059.84;5058402;28;20047;-79
2023/08/10 09:27:50;;;;;;;0.43;0.20;;;;;;;14.75;75.71;101043.53;5060304;28;20140;-78
2023/08/10 09:30:18;;;;;;;1.00;0.20;;;;;;;14.91;75.59;101061.44;5057135;28;20037;-78
2023/08/10 09:32:45;;;;;;;3.50;0.20;;;;;;;14.93;75.71;101071.03;5058188;28;20048;-78
2023/08/10 09:35:17;;;;;;;1.52;0.20;;;;;;;14.95;75.78;101066.59;5058304;28;20597;-76
2023/08/10 09:37:45;;;;;;;1.77;0.32;;;;;;;14.89;75.54;101053.63;5052027;28;20061;-77
2023/08/10 09:40:16;;;;;;;0.65;0.15;;;;;;;14.98;75.62;101069.13;5057517;28;20048;-78
2023/08/10 09:42:43;;;;;;;0.38;0.20;;;;;;;15.02;75.62;101072.50;5060031;28;20051;-78
2023/08/10 09:45:12;;;;;;;1.20;0.20;;;;;;;15.04;75.45;101073.31;5063944;28;20147;-78
2023/08/10 09:47:41;;;;;;;1.48;0.30;;;;;;;15.03;75.48;101071.59;5069851;28;20414;-79
2023/08/10 09:50:12;;;;;;;0.95;0.20;;;;;;;15.07;75.12;101076.69;5063071;28;20474;-75
2023/08/10 09:52:40;;;;;;;2.35;0.30;;;;;;;15.10;75.05;101072.25;5052380;28;20067;-75
2023/08/10 09:55:09;;;;;;;1.60;0.40;;;;;;;15.11;75.22;101079.22;5055549;28;20051;-75
2023/08/10 09:57:40;;;;;;;2.70;1.10;;;;;;;15.13;75.19;101069.53;5052091;28;20120;-74
2023/08/10 10:00:14;;;;;;;1.05;0.10;;;;;;;15.10;75.07;101069.63;5053182;28;20044;-75
2023/08/10 10:02:41;;;;;;;1.17;0.20;;;;;;;14.99;74.95;101051.56;5056242;28;20114;-75
2023/08/10 10:05:08;;;;;;;0.52;0.10;;;;;;;15.10;74.69;101072.25;5054877;28;20521;-74
2023/08/10 10:07:35;;;;;;;2.42;0.15;;;;;;;15.13;74.77;101080.06;5054025;28;20048;-75
2023/08/10 10:10:02;;;;;;;0.95;0.10;;;;;;;15.13;74.76;101083.53;5052695;28;20059;-76
2023/08/10 10:12:35;;;;;;;1.05;0.10;;;;;;;15.11;74.62;101076.59;5058457;28;20047;-75
2023/08/10 10:15:05;;;;;;;0.10;0.03;;;;;;;15.11;74.69;101084.50;5051333;28;20905;-74
2023/08/10 10:17:32;;;;;;;0.45;0.05;;;;;;;15.12;74.66;101086.22;5050353;28;20110;-74
2023/08/10 10:20:00;;;;;;;1.05;0.10;;;;;;;15.14;74.89;101094.91;5053797;28;20052;-74
2023/08/10 10:22:28;;;;;;;0.10;0.10;;;;;;;15.15;74.54;101094.03;5054025;28;20037;-74
2023/08/10 10:24:59;;;;;;;1.35;0.47;;;;;;;15.15;74.75;101091.41;5049716;28;20508;-75
2023/08/10 10:27:39;;;;;;;0.68;0.10;;;;;;;15.14;74.31;101094.91;5056035;28;20508;-75
2023/08/10 10:30:14;;;;;;;0.75;0.10;;;;;;;15.15;74.42;101096.66;5052585;28;20041;-75
2023/08/10 10:32:45;;;;;;;0.57;0.00;;;;;;;15.15;74.26;101096.66;5049587;28;20045;-75
2023/08/10 10:35:16;;;;;;;3.30;0.10;;;;;;;15.09;74.53;101102.13;5050828;28;20469;-74
2023/08/10 10:37:43;;;;;;;0.30;0.10;;;;;;;15.15;74.65;101113.31;5049873;28;20048;-74
2023/08/10 10:40:18;;;;;;;1.10;0.10;;;;;;;15.16;74.28;101122.06;5052262;28;20503;-76
2023/08/10 10:43:06;;;;;;;0.70;0.10;;;;;;;15.16;74.46;101115.00;5049569;28;20136;-75
2023/08/10 10:45:37;;;;;;;0.50;0.35;;;;;;;14.83;74.39;101065.22;5053537;28;20075;-75
2023/08/10 10:48:06;;;;;;;0.20;0.10;;;;;;;15.16;74.42;101119.41;5048664;28;20045;-75
2023/08/10 10:50:34;;;;;;;0.60;0.00;;;;;;;15.16;74.53;101135.22;5058288;28;20071;-75
2023/08/10 10:53:02;;;;;;;0.20;0.10;;;;;;;15.15;74.08;101125.59;5053363;28;20121;-74
2023/08/10 10:55:41;;;;;;;0.43;0.10;;;;;;;15.14;74.52;101129.13;5053262;28;20055;-74
2023/08/10 10:58:10;;;;;;;0.40;0.10;;;;;;;15.16;74.77;101129.94;5053903;28;20121;-76
2023/08/10 11:00:39;;;;;;;0.60;0.10;;;;;;;15.19;74.67;101137.75;5050600;28;20505;-76
2023/08/10 11:03:08;;;;;;;0.38;0.10;;;;;;;15.18;74.76;101125.50;5052379;28;20053;-77
2023/08/10 11:05:36;;;;;;;0.35;0.10;;;;;;;15.23;74.78;101139.38;4995111;28;20048;-77
2023/08/10 11:08:05;;;;;;;0.90;0.10;;;;;;;15.26;75.14;101137.50;5050868;28;20053;-76
2023/08/10 11:10:34;;;;;;;1.15;0.13;;;;;;;15.24;75.17;101139.31;5056124;28;20060;-77
2023/08/10 11:13:04;;;;;;;0.20;0.10;;;;;;;15.32;75.01;101141.72;5051775;28;20138;-75
2023/08/10 11:15:31;;;;;;;0.25;0.10;;;;;;;15.34;75.09;101147.78;5052288;28;20419;-76
2023/08/10 11:18:02;;;;;;;1.05;0.10;;;;;;;15.37;75.22;101144.16;5047771;28;20049;-76
2023/08/10 11:20:29;;;;;;;2.80;0.13;;;;;;;15.39;75.00;101153.75;5054663;28;20066;-76
2023/08/10 11:22:56;;;;;;;1.45;0.20;;;;;;;15.40;75.01;101155.50;5048217;28;20045;-75
2023/08/10 11:25:29;;;;;;;1.30;0.35;;;;;;;15.41;74.72;101151.06;5048041;28;20053;-76
2023/08/10 11:27:57;;;;;;;0.90;0.20;;;;;;;15.40;74.83;101150.22;5051880;28;20422;-75